Time;durP1;ratioP1;P1;durP2;ratioP2;P2;SDS_P1;SDS_P2;PMS_P1;PMS_P2;Temp;Humidity;BMP_temperature;BMP_pressure;BME280_temperature;BME280_humidity;BME280_pressure;Samples;Min_cycle;Max_cycle;Signal;HPM_P1;HPM_P2
2021/05/31 00:00:22;;;;;;;6.60;1.90;;;;;;;11.63;76.99;100566.04;1794422;79;21037;-73
2021/05/31 00:02:49;;;;;;;4.57;1.70;;;;;;;11.61;76.94;100566.28;1789074;79;21101;-73
2021/05/31 00:05:22;;;;;;;4.67;2.20;;;;;;;11.56;76.93;100562.81;1783088;78;21505;-72
2021/05/31 00:07:46;;;;;;;5.00;1.97;;;;;;;11.50;76.96;100565.46;1782289;78;21408;-73
2021/05/31 00:10:14;;;;;;;3.17;1.70;;;;;;;11.47;77.18;100567.86;1795044;79;21438;-73
2021/05/31 00:12:40;;;;;;;3.87;1.73;;;;;;;11.44;77.30;100567.04;1792689;79;21149;-73
2021/05/31 00:15:09;;;;;;;4.27;2.00;;;;;;;11.43;77.48;100565.44;1791784;79;21285;-73
2021/05/31 00:17:37;;;;;;;5.93;2.20;;;;;;;11.41;77.44;100563.02;1786591;79;21432;-72
2021/05/31 00:20:07;;;;;;;3.00;1.50;;;;;;;11.39;77.26;100565.16;1785020;79;21865;-72
2021/05/31 00:22:33;;;;;;;3.00;1.60;;;;;;;11.39;77.31;100563.03;1759933;79;22927;-74
2021/05/31 00:25:00;;;;;;;5.50;1.87;;;;;;;11.36;77.37;100560.34;1800225;79;21327;-72
2021/05/31 00:27:27;;;;;;;5.50;1.80;;;;;;;11.35;77.22;100560.58;1790903;79;21372;-73
2021/05/31 00:29:55;;;;;;;4.77;1.70;;;;;;;11.32;77.03;100563.78;1779740;79;21345;-73
2021/05/31 00:32:22;;;;;;;4.80;1.97;;;;;;;11.29;77.03;100561.12;1796396;79;21347;-73
2021/05/31 00:34:50;;;;;;;4.10;1.80;;;;;;;11.30;77.23;100560.58;1793273;79;21399;-73
2021/05/31 00:37:17;;;;;;;4.63;1.90;;;;;;;11.28;77.24;100559.48;1790345;78;21340;-73
2021/05/31 00:39:46;;;;;;;7.37;2.40;;;;;;;11.26;77.13;100558.97;1786926;79;21305;-72
2021/05/31 00:42:12;;;;;;;5.20;1.90;;;;;;;11.26;77.33;100561.10;1793839;78;21386;-73
2021/05/31 00:44:39;;;;;;;3.27;1.87;;;;;;;11.25;77.38;100567.52;1766131;80;21311;-73
2021/05/31 00:47:07;;;;;;;4.03;1.73;;;;;;;11.27;77.45;100568.58;1785394;80;21376;-73
2021/05/31 00:49:38;;;;;;;4.80;2.00;;;;;;;11.28;77.54;100574.99;1778135;78;21183;-73
2021/05/31 00:52:07;;;;;;;9.90;2.30;;;;;;;11.30;77.58;100561.91;1802928;79;21171;-72
2021/05/31 00:54:35;;;;;;;4.43;1.80;;;;;;;11.26;77.51;100566.98;1778931;79;21202;-72
2021/05/31 00:57:03;;;;;;;6.40;1.90;;;;;;;11.24;77.64;100567.77;1782005;79;21972;-74
2021/05/31 00:59:30;;;;;;;5.43;2.00;;;;;;;11.22;77.79;100557.85;1793796;79;21317;-72
2021/05/31 01:01:57;;;;;;;3.27;1.90;;;;;;;11.18;77.88;100564.26;1780407;79;21209;-72
2021/05/31 01:04:24;;;;;;;4.30;1.80;;;;;;;11.16;78.07;100562.94;1776071;79;21261;-73
2021/05/31 01:07:11;;;;;;;4.20;2.10;;;;;;;11.16;78.08;100565.61;1800064;78;21261;-73
2021/05/31 01:10:17;;;;;;;5.27;1.80;;;;;;;11.17;78.10;100561.32;1757663;79;21253;-73
2021/05/31 01:12:58;;;;;;;4.03;1.80;;;;;;;11.21;78.09;100558.93;1800226;79;21370;-73
2021/05/31 01:15:35;;;;;;;4.13;1.93;;;;;;;11.20;78.02;100566.69;1775650;79;21593;-72
2021/05/31 01:18:18;;;;;;;7.00;2.10;;;;;;;11.18;78.07;100570.14;1791358;79;21385;-72
2021/05/31 01:21:19;;;;;;;6.50;2.20;;;;;;;11.20;78.13;100572.03;1787257;79;22195;-73
2021/05/31 01:23:48;;;;;;;6.33;2.27;;;;;;;11.25;78.08;100580.06;1785278;79;21490;-73
2021/05/31 01:26:21;;;;;;;5.00;2.10;;;;;;;11.27;77.91;100574.73;1785974;79;21734;-73
2021/05/31 01:29:01;;;;;;;5.43;2.20;;;;;;;11.28;77.65;100571.52;1785320;79;21125;-73
2021/05/31 01:31:55;;;;;;;3.60;1.97;;;;;;;11.27;77.64;100569.38;1787250;79;21280;-73
2021/05/31 01:34:25;;;;;;;3.37;2.00;;;;;;;11.27;77.59;100569.38;1781532;79;21091;-72
2021/05/31 01:37:11;;;;;;;8.10;1.97;;;;;;;11.24;77.39;100567.77;1790005;79;21325;-72
2021/05/31 01:39:39;;;;;;;3.13;1.90;;;;;;;11.19;77.44;100569.90;1783815;79;22461;-73
2021/05/31 01:42:10;;;;;;;6.47;2.10;;;;;;;11.19;77.58;100574.45;1794876;79;21146;-73
2021/05/31 01:44:38;;;;;;;5.43;1.90;;;;;;;11.18;77.50;100570.14;1788302;79;21843;-72
2021/05/31 01:47:05;;;;;;;4.20;2.10;;;;;;;11.18;77.65;100569.61;1774974;79;22179;-73
2021/05/31 01:49:31;;;;;;;3.47;1.97;;;;;;;11.19;77.62;100571.77;1783679;79;21395;-72
2021/05/31 01:52:00;;;;;;;4.03;1.67;;;;;;;11.17;77.60;100571.22;1767600;79;21407;-74
2021/05/31 01:54:26;;;;;;;4.17;1.87;;;;;;;11.15;77.60;100578.14;1786460;79;21341;-72
2021/05/31 01:56:54;;;;;;;4.13;2.00;;;;;;;11.13;77.42;100580.29;1781848;79;21329;-72
2021/05/31 01:59:21;;;;;;;3.90;2.17;;;;;;;11.09;77.44;100575.70;1739418;79;21310;-72
2021/05/31 02:01:49;;;;;;;6.10;2.23;;;;;;;11.07;77.49;100576.52;1789583;79;21233;-72
2021/05/31 02:04:16;;;;;;;3.37;2.00;;;;;;;11.10;77.53;100584.81;1792276;79;21236;-72
2021/05/31 02:06:43;;;;;;;3.63;2.07;;;;;;;11.11;77.53;100582.94;1790823;79;21355;-73
2021/05/31 02:09:09;;;;;;;5.93;2.53;;;;;;;11.12;77.51;100580.53;1756449;79;21742;-71
2021/05/31 02:12:08;;;;;;;4.97;1.77;;;;;;;11.11;77.57;100586.41;1786904;79;21285;-72
2021/05/31 02:14:57;;;;;;;5.73;2.10;;;;;;;11.11;77.65;100591.77;1778069;79;21135;-73
2021/05/31 02:17:44;;;;;;;5.07;2.63;;;;;;;11.13;77.72;100595.53;1777650;79;21333;-73
2021/05/31 02:20:17;;;;;;;3.87;2.17;;;;;;;11.18;77.69;100600.88;1786793;79;21298;-73
2021/05/31 02:22:49;;;;;;;4.47;2.60;;;;;;;11.23;77.53;100604.94;1779799;79;21263;-72
2021/05/31 02:25:17;;;;;;;8.17;2.13;;;;;;;11.24;77.42;100607.34;1794820;78;21419;-73
2021/05/31 02:27:46;;;;;;;6.17;2.43;;;;;;;11.24;77.38;100603.86;1781839;79;21298;-71
2021/05/31 02:30:15;;;;;;;8.50;2.33;;;;;;;11.24;77.41;100605.20;1793908;79;21297;-72
2021/05/31 02:32:54;;;;;;;5.80;2.30;;;;;;;11.26;77.45;100605.75;1787697;79;21211;-72
2021/05/31 02:35:22;;;;;;;3.97;2.23;;;;;;;11.26;77.42;100604.42;1777011;79;21366;-73
2021/05/31 02:37:49;;;;;;;5.10;2.03;;;;;;;11.27;77.44;100602.00;1793392;79;21759;-73
2021/05/31 02:40:16;;;;;;;4.47;2.60;;;;;;;11.28;77.40;100596.92;1785851;79;21373;-72
2021/05/31 02:42:47;;;;;;;5.80;2.27;;;;;;;11.26;77.36;100605.22;1800518;79;21284;-72
2021/05/31 02:45:15;;;;;;;7.97;2.30;;;;;;;11.28;77.42;100611.62;1784385;79;21177;-72
2021/05/31 02:47:43;;;;;;;5.63;2.33;;;;;;;11.28;77.42;100611.62;1784062;79;21610;-73
2021/05/31 02:50:11;;;;;;;4.30;2.70;;;;;;;11.33;77.36;100612.20;1785557;79;21364;-73
2021/05/31 02:52:41;;;;;;;6.00;2.73;;;;;;;11.34;77.27;100609.79;1787009;79;21191;-71
2021/05/31 02:55:13;;;;;;;6.37;2.33;;;;;;;11.37;77.29;100613.28;1796326;79;21215;-73
2021/05/31 02:57:40;;;;;;;5.87;2.58;;;;;;;11.39;77.25;100614.64;1793591;79;21295;-72
2021/05/31 03:00:10;;;;;;;5.37;2.70;;;;;;;11.41;77.30;100615.70;1784655;79;21075;-72
2021/05/31 03:02:38;;;;;;;4.05;2.30;;;;;;;11.42;77.28;100614.13;1778763;79;21059;-73
2021/05/31 03:05:06;;;;;;;6.43;2.60;;;;;;;11.46;77.20;100616.54;1795768;79;21033;-73
2021/05/31 03:07:33;;;;;;;4.83;2.40;;;;;;;11.45;77.02;100618.95;1790029;79;21266;-72
2021/05/31 03:10:00;;;;;;;7.43;2.67;;;;;;;11.43;77.02;100609.58;1792719;79;21452;-73
2021/05/31 03:12:26;;;;;;;4.80;2.50;;;;;;;11.44;77.01;100611.17;1784999;79;21416;-72
2021/05/31 03:14:53;;;;;;;7.10;2.57;;;;;;;11.45;77.05;100611.44;1781715;79;21319;-72
2021/05/31 03:17:20;;;;;;;5.43;2.40;;;;;;;11.47;76.99;100611.98;1791775;79;21748;-72
2021/05/31 03:19:48;;;;;;;5.67;2.27;;;;;;;11.43;77.04;100611.71;1791184;78;21158;-72
2021/05/31 03:22:15;;;;;;;3.90;2.50;;;;;;;11.39;77.03;100612.50;1789287;79;21650;-73
2021/05/31 03:24:42;;;;;;;4.23;2.30;;;;;;;11.35;77.14;100606.87;1788443;79;21409;-73
2021/05/31 03:27:09;;;;;;;5.10;2.23;;;;;;;11.34;77.22;100614.61;1778175;79;21261;-72
2021/05/31 03:29:36;;;;;;;5.20;2.67;;;;;;;11.32;77.15;100610.06;1780322;79;21271;-73
2021/05/31 03:32:03;;;;;;;5.33;2.33;;;;;;;11.32;77.30;100615.92;1788246;79;21255;-72
2021/05/31 03:34:30;;;;;;;5.93;2.37;;;;;;;11.35;77.28;100614.06;1797561;79;21335;-72
2021/05/31 03:36:57;;;;;;;4.87;2.10;;;;;;;11.38;77.27;100625.05;1777143;79;21369;-72
2021/05/31 03:39:25;;;;;;;4.87;1.90;;;;;;;11.45;77.42;100617.61;1793513;79;21590;-72
2021/05/31 03:41:52;;;;;;;5.40;2.40;;;;;;;11.54;77.55;100617.90;1788122;79;21953;-73
2021/05/31 03:44:19;;;;;;;3.27;2.20;;;;;;;11.64;77.09;100618.47;1783822;79;21355;-72
2021/05/31 03:46:46;;;;;;;3.80;2.20;;;;;;;11.69;76.48;100613.95;1787433;79;21298;-72
2021/05/31 03:49:14;;;;;;;4.93;1.90;;;;;;;11.73;76.46;100620.92;1786134;79;21425;-72
2021/05/31 03:51:42;;;;;;;4.87;2.20;;;;;;;11.80;76.40;100616.12;1789658;79;21931;-72
2021/05/31 03:54:09;;;;;;;5.23;2.27;;;;;;;11.88;76.08;100614.31;1791043;79;21343;-72
2021/05/31 03:56:36;;;;;;;3.10;2.07;;;;;;;11.95;75.91;100610.05;1784680;79;21364;-72
2021/05/31 03:59:03;;;;;;;5.10;2.13;;;;;;;12.07;75.54;100604.42;1787003;79;21913;-73
2021/05/31 04:01:31;;;;;;;3.80;1.93;;;;;;;12.17;75.31;100605.27;1787244;79;21906;-73
2021/05/31 04:03:58;;;;;;;4.77;2.47;;;;;;;12.27;74.44;100603.64;1778055;79;21216;-71
2021/05/31 04:11:37;;;;;;;5.03;2.40;;;;;;;12.35;73.49;100601.25;1792829;78;21273;-72
2021/05/31 04:14:11;;;;;;;4.90;2.63;;;;;;;12.43;73.44;100595.89;1784073;78;21431;-72
2021/05/31 04:16:40;;;;;;;5.90;2.13;;;;;;;12.49;72.80;100591.34;1786970;78;21199;-72
2021/05/31 04:19:08;;;;;;;4.27;1.63;;;;;;;12.53;72.56;100594.54;1785695;79;21478;-73
2021/05/31 04:21:35;;;;;;;4.13;2.10;;;;;;;12.66;72.19;100598.55;1785805;79;21363;-72
2021/05/31 04:24:04;;;;;;;4.17;2.40;;;;;;;12.76;71.60;100597.73;1781707;79;21412;-73
2021/05/31 04:26:35;;;;;;;2.70;1.90;;;;;;;12.76;71.60;100597.73;1793724;79;21931;-72
2021/05/31 04:29:03;;;;;;;3.80;2.10;;;;;;;12.71;70.59;100605.80;1789512;79;21322;-72
2021/05/31 04:31:33;;;;;;;4.93;2.10;;;;;;;12.66;70.46;100605.25;1772220;79;21944;-73
2021/05/31 04:34:01;;;;;;;6.50;2.10;;;;;;;12.70;70.65;100610.88;1783629;79;21879;-72
2021/05/31 04:36:29;;;;;;;4.60;1.87;;;;;;;12.93;70.47;100609.50;1797708;79;21286;-72
2021/05/31 04:38:56;;;;;;;4.40;2.00;;;;;;;12.93;70.47;100609.50;1785212;79;21384;-72
2021/05/31 04:41:23;;;;;;;2.23;1.50;;;;;;;12.98;69.67;100609.51;1789155;78;21398;-74
2021/05/31 04:43:50;;;;;;;3.23;1.80;;;;;;;13.02;69.55;100607.88;1781273;79;21499;-70
2021/05/31 04:46:18;;;;;;;3.90;2.37;;;;;;;13.09;69.52;100613.77;1790015;79;22111;-72
2021/05/31 04:48:44;;;;;;;4.27;1.93;;;;;;;13.14;68.40;100610.53;1788358;78;21344;-72
2021/05/31 04:51:11;;;;;;;4.30;2.20;;;;;;;13.14;68.40;100610.53;1787539;78;21552;-73
2021/05/31 04:53:39;;;;;;;3.33;2.00;;;;;;;13.28;68.60;100606.77;1787222;79;21454;-73
2021/05/31 04:56:08;;;;;;;5.63;1.80;;;;;;;13.28;68.60;100606.77;1780089;79;21543;-72
2021/05/31 04:58:34;;;;;;;3.23;2.00;;;;;;;13.41;68.39;100607.27;1787969;79;21515;-72
2021/05/31 05:01:01;;;;;;;3.67;1.90;;;;;;;13.52;67.67;100610.16;1787272;79;21405;-72
2021/05/31 05:03:29;;;;;;;5.23;1.80;;;;;;;13.63;68.17;100607.71;1758010;79;21538;-72
2021/05/31 05:05:56;;;;;;;3.63;1.90;;;;;;;13.80;67.79;100608.70;1782918;79;22057;-72
2021/05/31 05:08:23;;;;;;;3.00;2.10;;;;;;;13.94;66.37;100615.05;1779052;79;21794;-71
2021/05/31 05:10:51;;;;;;;4.83;1.67;;;;;;;14.07;66.29;100619.00;1785050;79;21619;-72
2021/05/31 05:13:17;;;;;;;3.30;1.93;;;;;;;14.07;66.29;100619.00;1782042;78;21727;-72
2021/05/31 05:15:44;;;;;;;4.03;1.80;;;;;;;14.15;66.35;100618.94;1790910;79;21736;-72
2021/05/31 05:18:12;;;;;;;3.40;1.60;;;;;;;14.18;66.09;100616.53;1792484;79;21728;-71
2021/05/31 05:20:38;;;;;;;3.53;2.10;;;;;;;14.19;65.92;100611.41;1789258;79;21760;-72
2021/05/31 05:23:05;;;;;;;2.67;1.70;;;;;;;14.29;64.76;100622.08;1782455;79;21736;-71
2021/05/31 05:25:32;;;;;;;2.97;1.60;;;;;;;14.21;64.15;100615.14;1784705;79;21744;-71
2021/05/31 05:27:59;;;;;;;3.13;1.60;;;;;;;14.09;63.91;100619.54;1784491;79;21802;-72
2021/05/31 05:30:27;;;;;;;3.43;2.00;;;;;;;14.01;64.08;100618.77;1788648;79;21714;-72
2021/05/31 05:32:59;;;;;;;4.83;1.93;;;;;;;13.91;64.59;100618.83;1783949;79;21770;-72
2021/05/31 05:35:31;;;;;;;4.60;2.03;;;;;;;13.86;65.12;100617.53;1783641;78;21656;-73
2021/05/31 05:45:55;;;;;;;3.30;1.87;;;;;;;13.66;66.50;100632.66;1738936;79;21629;-73
2021/05/31 05:48:15;;;;;;;4.23;2.30;;;;;;;13.69;66.14;100635.31;1793458;79;21752;-72
2021/05/31 05:50:42;;;;;;;3.83;2.10;;;;;;;13.70;66.20;100627.00;1773646;79;21727;-73
2021/05/31 05:53:09;;;;;;;4.80;2.10;;;;;;;13.75;65.97;100635.01;1787325;79;22193;-71
2021/05/31 05:55:36;;;;;;;3.40;1.70;;;;;;;13.76;66.01;100627.23;1785318;78;21824;-72
2021/05/31 05:58:03;;;;;;;4.50;2.27;;;;;;;13.73;65.61;100625.11;1787935;79;21719;-71
2021/05/31 06:00:30;;;;;;;4.23;2.20;;;;;;;13.69;65.73;100628.59;1767689;79;21780;-71
2021/05/31 06:02:57;;;;;;;4.93;2.30;;;;;;;13.63;66.25;100630.52;1784017;78;21702;-72
2021/05/31 06:05:24;;;;;;;3.30;2.20;;;;;;;13.57;66.80;100633.77;1788499;79;22262;-72
2021/05/31 06:07:51;;;;;;;5.53;2.20;;;;;;;13.56;66.67;100628.69;1752315;79;22525;-73
2021/05/31 06:10:18;;;;;;;4.93;2.33;;;;;;;13.56;65.85;100597.28;1800250;77;21747;-71
2021/05/31 06:12:44;;;;;;;5.47;2.23;;;;;;;13.71;65.93;100620.55;1783193;78;21916;-72
2021/05/31 06:15:12;;;;;;;3.50;2.33;;;;;;;13.94;65.36;100622.30;1791119;79;21729;-72
2021/05/31 06:17:41;;;;;;;3.40;2.20;;;;;;;14.13;64.78;100630.52;1788774;78;21802;-72
2021/05/31 06:20:09;;;;;;;5.73;2.37;;;;;;;14.24;63.82;100638.77;1773414;79;21771;-72
2021/05/31 06:22:39;;;;;;;5.80;2.50;;;;;;;14.17;62.29;100632.36;1788106;79;21759;-71
2021/05/31 06:25:08;;;;;;;4.57;2.20;;;;;;;14.03;62.34;100636.77;1790286;78;21837;-72
2021/05/31 06:27:35;;;;;;;3.47;2.20;;;;;;;13.96;62.56;100638.95;1784463;79;21644;-72
2021/05/31 06:30:04;;;;;;;3.07;2.17;;;;;;;13.88;63.05;100635.49;1788932;79;21782;-73
2021/05/31 06:32:31;;;;;;;4.53;2.23;;;;;;;13.88;63.57;100636.83;1788193;79;21704;-72
2021/05/31 06:34:59;;;;;;;5.60;1.90;;;;;;;13.94;63.16;100627.67;1791630;78;21739;-72
2021/05/31 06:37:25;;;;;;;2.40;1.70;;;;;;;14.05;62.62;100636.75;1795377;79;22282;-72
2021/05/31 06:39:52;;;;;;;4.87;1.87;;;;;;;14.15;61.58;100641.27;1783735;79;21732;-73
2021/05/31 06:42:19;;;;;;;4.43;2.17;;;;;;;14.21;61.50;100641.46;1798495;79;21756;-71
2021/05/31 06:44:46;;;;;;;2.53;1.80;;;;;;;14.27;61.41;100642.23;1787170;79;21685;-72
2021/05/31 06:47:13;;;;;;;3.10;1.77;;;;;;;14.35;61.29;100645.69;1787329;78;21613;-74
2021/05/31 06:49:44;;;;;;;2.27;2.00;;;;;;;14.43;61.20;100642.94;1793793;79;22196;-72
2021/05/31 06:52:09;;;;;;;4.57;2.10;;;;;;;14.45;60.46;100642.12;1790365;78;21766;-72
2021/05/31 07:12:32;;;;;;;3.67;1.70;;;;;;;14.90;59.66;100646.32;1833514;75;22071;-73
2021/05/31 07:15:03;;;;;;;2.13;1.53;;;;;;;14.65;59.35;100643.33;1817523;77;20980;-72
2021/05/31 07:17:28;;;;;;;4.80;1.77;;;;;;;14.46;59.96;100646.41;1789392;78;21063;-73
2021/05/31 07:19:55;;;;;;;5.47;2.00;;;;;;;14.33;60.34;100643.02;1770411;79;20972;-71
2021/05/31 07:22:23;;;;;;;3.50;1.60;;;;;;;14.21;60.95;100646.84;1765775;79;21067;-73
2021/05/31 07:24:50;;;;;;;5.57;2.10;;;;;;;14.18;61.83;100648.77;1774292;79;21083;-73
2021/05/31 07:27:18;;;;;;;2.50;1.53;;;;;;;14.26;61.78;100637.41;1769345;79;21110;-73
2021/05/31 07:29:45;;;;;;;3.60;1.70;;;;;;;14.43;61.87;100645.08;1776626;79;22300;-73
2021/05/31 07:32:15;;;;;;;4.87;1.90;;;;;;;14.60;61.72;100647.39;1770667;79;21132;-72
2021/05/31 07:34:43;;;;;;;3.50;1.50;;;;;;;14.74;60.92;100650.23;1769715;79;20952;-73
2021/05/31 07:37:10;;;;;;;2.00;1.47;;;;;;;14.80;60.41;100652.34;1738659;80;21129;-71
2021/05/31 07:39:37;;;;;;;3.30;1.77;;;;;;;14.69;60.47;100655.13;1767780;80;21247;-71
2021/05/31 07:42:05;;;;;;;2.80;1.37;;;;;;;14.75;60.26;100653.20;1791376;78;21099;-72
2021/05/31 07:44:34;;;;;;;3.03;1.30;;;;;;;14.75;60.26;100653.20;1787366;78;21071;-72
2021/05/31 07:47:02;;;;;;;1.80;1.17;;;;;;;14.82;59.59;100659.05;1758149;80;22224;-72
2021/05/31 07:49:29;;;;;;;3.10;1.23;;;;;;;14.90;59.93;100656.28;1794519;78;21153;-71
2021/05/31 07:52:06;;;;;;;2.77;0.90;;;;;;;14.99;59.30;100659.42;1771261;79;21112;-73
2021/05/31 07:54:27;;;;;;;3.87;1.30;;;;;;;15.11;59.31;100655.02;1777947;78;21142;-73
2021/05/31 07:56:54;;;;;;;2.33;1.13;;;;;;;15.23;58.35;100654.09;1777990;79;21084;-71
2021/05/31 07:59:21;;;;;;;1.50;0.90;;;;;;;15.23;57.36;100654.61;1768952;79;21569;-73
2021/05/31 08:01:48;;;;;;;1.67;0.93;;;;;;;15.15;56.95;100662.77;1752734;79;21386;-72
2021/05/31 08:04:16;;;;;;;1.53;0.73;;;;;;;15.05;56.63;100661.52;1742990;80;21088;-71
2021/05/31 08:06:42;;;;;;;2.00;0.93;;;;;;;14.96;57.52;100658.64;1714693;82;21100;-73
2021/05/31 08:09:10;;;;;;;1.30;0.90;;;;;;;14.94;58.13;100664.06;1736907;80;21100;-73
2021/05/31 08:11:36;;;;;;;3.43;1.10;;;;;;;14.87;57.57;100661.70;1731771;81;21107;-72
2021/05/31 08:14:05;;;;;;;2.97;1.10;;;;;;;14.82;57.80;100671.70;1752218;80;21138;-72
2021/05/31 08:16:32;;;;;;;1.43;0.90;;;;;;;14.75;57.27;100672.02;1752421;80;21119;-71
2021/05/31 08:19:01;;;;;;;1.93;0.80;;;;;;;14.64;57.67;100669.14;1752645;80;21319;-71
2021/05/31 08:21:27;;;;;;;1.53;0.80;;;;;;;14.49;58.13;100683.48;1754426;80;21080;-72
2021/05/31 08:23:54;;;;;;;1.47;0.70;;;;;;;14.49;58.13;100683.48;1751631;80;21393;-72
2021/05/31 08:26:21;;;;;;;1.37;0.80;;;;;;;14.52;57.49;100676.23;1756669;80;21119;-71
2021/05/31 08:28:48;;;;;;;3.23;1.00;;;;;;;14.52;57.94;100674.89;1750654;80;21091;-71
2021/05/31 08:31:15;;;;;;;1.33;0.70;;;;;;;14.65;58.25;100680.17;1750391;80;21187;-72
2021/05/31 08:33:42;;;;;;;1.43;0.77;;;;;;;14.80;58.88;100673.85;1751844;80;21123;-70
2021/05/31 08:36:09;;;;;;;2.77;1.00;;;;;;;14.92;58.01;100676.98;1748728;80;21076;-72
2021/05/31 08:38:36;;;;;;;2.70;0.87;;;;;;;14.95;57.21;100680.45;1728471;81;21080;-72
2021/05/31 08:41:05;;;;;;;2.00;1.10;;;;;;;14.97;57.60;100676.92;1757380;80;21088;-73
2021/05/31 08:43:32;;;;;;;1.50;0.87;;;;;;;14.98;57.73;100686.61;1752867;80;21128;-72
2021/05/31 08:45:58;;;;;;;1.97;0.90;;;;;;;14.97;58.33;100690.37;1744235;80;21085;-72
2021/05/31 08:48:28;;;;;;;2.73;0.90;;;;;;;14.95;57.86;100687.17;1754326;80;21099;-73
2021/05/31 08:50:54;;;;;;;1.43;0.80;;;;;;;14.93;57.85;100692.82;1737107;80;21131;-73
2021/05/31 08:53:21;;;;;;;2.10;0.90;;;;;;;14.88;57.27;100689.40;1724254;81;21212;-71
2021/05/31 08:55:49;;;;;;;2.33;0.70;;;;;;;14.81;56.72;100684.86;1737765;80;21198;-72
2021/05/31 08:58:16;;;;;;;2.27;0.90;;;;;;;14.76;57.36;100696.47;1738665;80;21132;-70
2021/05/31 09:00:43;;;;;;;3.97;1.27;;;;;;;14.68;56.98;100695.74;1737859;80;21285;-71
2021/05/31 09:03:10;;;;;;;9.73;2.13;;;;;;;14.68;57.17;100698.43;1736688;80;21756;-71
2021/05/31 09:05:42;;;;;;;14.50;3.20;;;;;;;14.81;56.81;100687.55;1735900;80;21091;-71
2021/05/31 09:08:10;;;;;;;;;;;;;;;14.81;56.81;100687.55;1753016;81;21696;-73
2021/05/31 09:10:51;;;;;;;17.57;3.17;;;;;;;14.90;56.66;100689.90;1737480;80;20592;-71
2021/05/31 09:13:32;;;;;;;2.40;1.00;;;;;;;14.96;56.91;100692.80;1736712;80;21114;-72
2021/05/31 09:16:25;;;;;;;1.25;0.88;;;;;;;15.06;55.77;100695.40;1728139;81;21044;-72
2021/05/31 09:19:05;;;;;;;9.57;2.30;;;;;;;15.14;56.05;100697.49;1742110;80;21127;-71
2021/05/31 09:21:34;;;;;;;13.87;2.07;;;;;;;15.21;56.43;100696.61;1731841;80;21115;-71
2021/05/31 09:24:09;;;;;;;3.80;1.20;;;;;;;15.13;56.21;100702.59;1736561;81;21139;-71
2021/05/31 09:27:00;;;;;;;5.97;1.10;;;;;;;15.01;56.70;100696.81;1735682;81;21137;-73
2021/05/31 09:29:28;;;;;;;2.00;0.80;;;;;;;14.96;56.66;100695.50;1757808;80;21101;-70
2021/05/31 09:32:02;;;;;;;1.77;0.80;;;;;;;14.88;56.37;100695.58;1753254;80;21585;-71
2021/05/31 09:34:29;;;;;;;3.93;1.00;;;;;;;14.88;57.18;100701.50;1754736;80;21110;-71
2021/05/31 09:37:01;;;;;;;3.00;0.90;;;;;;;14.89;57.17;100701.20;1744376;81;21132;-71
2021/05/31 09:39:39;;;;;;;21.57;2.47;;;;;;;14.95;57.08;100696.05;1713108;81;21609;-72
2021/05/31 09:42:13;;;;;;;3.50;1.17;;;;;;;14.99;56.87;100700.31;1734901;81;21653;-72
2021/05/31 09:44:44;;;;;;;11.07;2.80;;;;;;;15.04;57.44;100700.80;1728869;82;21140;-71
2021/05/31 09:47:12;;;;;;;3.13;1.07;;;;;;;15.09;57.11;100708.83;1725175;81;21957;-71
2021/05/31 09:49:39;;;;;;;6.87;1.50;;;;;;;15.08;57.57;100716.11;1737028;81;21682;-71
2021/05/31 09:52:17;;;;;;;2.23;0.97;;;;;;;15.01;56.96;100715.09;1744712;80;21094;-72
2021/05/31 09:54:45;;;;;;;2.87;0.90;;;;;;;14.88;57.43;100715.74;1737957;80;21119;-71
2021/05/31 09:57:19;;;;;;;4.93;1.20;;;;;;;14.79;58.04;100714.73;1743133;80;21620;-71
2021/05/31 09:59:48;;;;;;;2.07;1.00;;;;;;;14.83;57.92;100708.25;1734636;80;21069;-71
2021/05/31 10:02:30;;;;;;;4.80;1.27;;;;;;;14.83;57.92;100708.25;1717612;81;21064;-72
2021/05/31 10:05:04;;;;;;;7.63;1.93;;;;;;;14.86;58.38;100705.00;1739696;81;21100;-72
2021/05/31 10:09:55;;;;;;;2.67;1.17;;;;;;;14.98;58.18;100710.82;1715773;81;21071;-71
2021/05/31 10:12:22;;;;;;;1.63;0.97;;;;;;;15.08;58.05;100719.34;1736147;81;21190;-71
2021/05/31 10:14:48;;;;;;;1.90;1.17;;;;;;;15.10;56.57;100713.92;1741740;81;21142;-71
2021/05/31 10:17:17;;;;;;;1.33;0.90;;;;;;;15.07;56.98;100714.52;1745297;81;21270;-71
2021/05/31 10:19:45;;;;;;;2.93;0.93;;;;;;;15.09;57.46;100712.32;1743690;81;21081;-71
2021/05/31 10:22:11;;;;;;;1.83;0.90;;;;;;;15.14;58.12;100714.98;1742516;81;22229;-70
2021/05/31 10:24:38;;;;;;;1.73;0.93;;;;;;;15.20;57.81;100717.06;1732376;81;21172;-71
2021/05/31 10:27:08;;;;;;;1.53;0.90;;;;;;;15.23;57.53;100715.14;1722175;81;21037;-71
2021/05/31 10:29:35;;;;;;;0.90;0.80;;;;;;;15.24;58.06;100722.95;1791483;79;21179;-71
2021/05/31 10:32:08;;;;;;;1.50;1.00;;;;;;;15.27;57.87;100720.77;1790467;79;21614;-71
2021/05/31 10:34:50;;;;;;;1.67;0.73;;;;;;;15.27;56.42;100723.45;1779837;79;21587;-71
2021/05/31 10:37:27;;;;;;;1.30;0.90;;;;;;;15.26;57.22;100722.66;1770403;79;21103;-72
2021/05/31 10:40:02;;;;;;;1.83;0.87;;;;;;;15.33;57.09;100719.63;1787256;79;21016;-72
2021/05/31 10:42:41;;;;;;;1.83;0.90;;;;;;;15.43;57.17;100718.17;1784496;80;21060;-71
2021/05/31 10:45:27;;;;;;;1.70;1.00;;;;;;;15.53;57.23;100719.96;1777439;79;21045;-72
2021/05/31 10:48:13;;;;;;;1.87;1.10;;;;;;;15.67;56.86;100717.69;1794327;79;21021;-72
2021/05/31 10:50:59;;;;;;;1.63;0.80;;;;;;;15.67;55.46;100712.30;1778657;79;21830;-71
2021/05/31 10:53:31;;;;;;;1.37;0.73;;;;;;;15.53;54.88;100715.92;1785627;79;21642;-71
2021/05/31 10:56:09;;;;;;;1.30;0.87;;;;;;;15.42;55.71;100709.85;1789064;79;21089;-71
2021/05/31 10:58:49;;;;;;;1.27;0.80;;;;;;;15.38;55.26;100700.75;1787724;79;21142;-72
2021/05/31 11:01:20;;;;;;;1.63;0.83;;;;;;;15.41;55.85;100702.88;1785509;79;21561;-70
2021/05/31 11:04:02;;;;;;;1.47;0.60;;;;;;;15.42;54.85;100700.43;1784117;79;21089;-71
2021/05/31 11:06:42;;;;;;;1.87;0.80;;;;;;;15.37;54.99;100709.92;1785468;79;21685;-71
2021/05/31 11:09:19;;;;;;;1.13;0.70;;;;;;;15.35;55.21;100710.73;1783596;79;20991;-71
2021/05/31 11:11:51;;;;;;;2.63;0.90;;;;;;;15.30;54.74;100713.47;1789208;79;21124;-72
2021/05/31 11:14:45;;;;;;;0.93;0.57;;;;;;;15.19;54.81;100706.05;1789266;79;21069;-71
2021/05/31 11:17:16;;;;;;;1.57;0.87;;;;;;;15.18;55.70;100713.87;1784166;79;21791;-71
2021/05/31 11:19:48;;;;;;;2.93;1.07;;;;;;;15.13;54.68;100709.86;1786721;79;21639;-72
2021/05/31 11:22:28;;;;;;;1.67;0.70;;;;;;;15.14;56.19;100710.95;1775125;79;21090;-71
2021/05/31 11:24:59;;;;;;;;;;;;;;;15.27;55.33;100714.03;1785667;79;21017;-72
2021/05/31 11:27:34;;;;;;;1.17;0.60;;;;;;;15.42;55.53;100709.30;1786030;79;20260;-72
2021/05/31 11:30:12;;;;;;;1.47;0.80;;;;;;;15.57;54.59;100711.59;1787102;79;21895;-72
2021/05/31 11:32:39;;;;;;;1.77;0.93;;;;;;;15.68;53.79;100708.52;1788639;79;21248;-71
2021/05/31 11:35:09;;;;;;;1.03;0.70;;;;;;;15.74;53.18;100711.16;1781370;79;21536;-72
2021/05/31 11:37:36;;;;;;;1.27;0.60;;;;;;;15.81;54.43;100707.02;1787354;79;21108;-71
2021/05/31 11:40:05;;;;;;;1.27;0.70;;;;;;;15.99;54.08;100701.94;1785248;79;21021;-71
2021/05/31 11:42:33;;;;;;;1.63;0.70;;;;;;;16.11;52.88;100705.02;1782501;79;21109;-71
2021/05/31 11:45:02;;;;;;;1.93;0.60;;;;;;;16.16;52.27;100701.72;1792784;79;21140;-72
2021/05/31 11:47:30;;;;;;;1.70;0.60;;;;;;;16.27;51.93;100702.92;1790021;79;21097;-72
2021/05/31 11:49:59;;;;;;;0.57;0.40;;;;;;;16.45;52.81;100698.61;1788801;79;21123;-72
2021/05/31 11:52:27;;;;;;;2.57;0.60;;;;;;;16.67;51.51;100696.66;1783478;79;21288;-71
2021/05/31 11:54:54;;;;;;;0.90;0.60;;;;;;;16.77;50.20;100693.27;1783544;79;21124;-70
2021/05/31 11:57:22;;;;;;;3.43;0.70;;;;;;;16.77;50.20;100689.23;1768394;79;21089;-72
2021/05/31 11:59:51;;;;;;;2.67;0.73;;;;;;;16.79;50.37;100693.00;1787519;79;21100;-72
2021/05/31 12:02:20;;;;;;;1.97;0.73;;;;;;;16.90;50.85;100690.92;1773888;79;21154;-71
2021/05/31 12:04:51;;;;;;;2.17;0.70;;;;;;;17.11;51.69;100686.23;1779673;80;21116;-72
2021/05/31 12:07:23;;;;;;;2.77;0.87;;;;;;;17.34;49.59;100678.23;1782520;79;21136;-73
2021/05/31 12:09:52;;;;;;;3.07;0.70;;;;;;;17.53;50.17;100678.15;1784603;79;21060;-73
2021/05/31 12:12:23;;;;;;;0.70;0.60;;;;;;;17.80;49.01;100679.53;1786118;79;21072;-73